Time;durP1;ratioP1;P1;durP2;ratioP2;P2;SDS_P1;SDS_P2;PMS_P1;PMS_P2;Temp;Humidity;BMP_temperature;BMP_pressure;BME280_temperature;BME280_humidity;BME280_pressure;Samples;Min_cycle;Max_cycle;Signal;HPM_P1;HPM_P2
2023/08/28 00:02:15;;;;;;;2.57;1.17;;;11.60;99.00;;;;;;5029375;28;20055;-71
2023/08/28 00:04:41;;;;;;;3.30;1.53;;;11.50;99.10;;;;;;5030876;28;20041;-70
2023/08/28 00:07:07;;;;;;;3.00;1.40;;;11.50;99.10;;;;;;5030683;28;20075;-70
2023/08/28 00:09:34;;;;;;;3.60;1.23;;;11.50;99.30;;;;;;5013523;28;20041;-71
2023/08/28 00:12:03;;;;;;;2.80;1.20;;;11.50;99.40;;;;;;5026476;28;20129;-70
2023/08/28 00:14:29;;;;;;;2.90;1.43;;;11.50;99.80;;;;;;5029656;28;20280;-70
2023/08/28 00:16:54;;;;;;;5.27;1.47;;;11.50;99.70;;;;;;5028602;28;20659;-70
2023/08/28 00:19:20;;;;;;;2.57;1.53;;;11.50;99.90;;;;;;5030241;28;20091;-70
2023/08/28 00:21:47;;;;;;;3.27;1.20;;;11.50;99.90;;;;;;5026093;28;20033;-70
2023/08/28 00:24:12;;;;;;;3.03;1.30;;;11.50;99.90;;;;;;5022938;28;20520;-70
2023/08/28 00:26:38;;;;;;;3.03;1.23;;;11.50;99.90;;;;;;5028123;28;20283;-70
2023/08/28 00:29:04;;;;;;;2.77;1.20;;;11.50;99.90;;;;;;5030197;28;20049;-70
2023/08/28 00:31:29;;;;;;;2.47;1.20;;;11.50;99.90;;;;;;5026317;28;20041;-70
2023/08/28 00:33:55;;;;;;;3.90;1.20;;;11.40;99.90;;;;;;5027120;28;20036;-71
2023/08/28 00:36:21;;;;;;;4.17;1.30;;;11.40;99.90;;;;;;5026326;28;20044;-70
2023/08/28 00:38:46;;;;;;;4.17;1.10;;;11.40;99.90;;;;;;5030309;28;20170;-71
2023/08/28 00:41:12;;;;;;;3.97;1.20;;;11.30;99.90;;;;;;5010560;28;20033;-70
2023/08/28 00:43:38;;;;;;;1.63;1.10;;;11.30;99.90;;;;;;5030360;28;20088;-71
2023/08/28 00:46:05;;;;;;;3.77;1.20;;;11.30;99.90;;;;;;5028741;28;20065;-70
2023/08/28 00:48:32;;;;;;;2.90;1.40;;;11.20;99.90;;;;;;5029320;28;20363;-71
2023/08/28 00:50:59;;;;;;;2.63;1.57;;;11.20;99.90;;;;;;5029643;28;20307;-70
2023/08/28 00:53:24;;;;;;;4.07;1.20;;;11.20;99.90;;;;;;5028051;28;20722;-70
2023/08/28 00:55:50;;;;;;;4.30;1.30;;;11.10;99.90;;;;;;5026193;28;20295;-70
2023/08/28 00:58:16;;;;;;;1.93;1.00;;;11.10;99.90;;;;;;5024868;28;20390;-70
2023/08/28 01:00:42;;;;;;;2.10;1.00;;;11.00;99.90;;;;;;5029196;28;20080;-70
2023/08/28 01:03:09;;;;;;;3.80;1.20;;;11.00;99.90;;;;;;5027187;28;20621;-70
2023/08/28 01:05:46;;;;;;;2.57;1.40;;;10.90;99.90;;;;;;5022914;28;20041;-70
2023/08/28 01:08:40;;;;;;;4.83;1.50;;;10.90;99.90;;;;;;5026503;28;20875;-70
2023/08/28 01:11:37;;;;;;;2.07;1.10;;;10.90;99.90;;;;;;5029665;28;20633;-70
2023/08/28 01:14:23;;;;;;;3.97;1.40;;;10.80;99.90;;;;;;4996357;28;20283;-70
2023/08/28 01:16:50;;;;;;;3.08;1.30;;;10.80;99.90;;;;;;5024541;28;20299;-70
2023/08/28 01:19:43;;;;;;;2.53;1.63;;;10.80;99.90;;;;;;5026439;28;20072;-70
2023/08/28 01:22:22;;;;;;;2.40;1.60;;;10.80;99.90;;;;;;5026586;28;20291;-70
2023/08/28 01:24:53;;;;;;;3.30;1.93;;;10.80;99.90;;;;;;5027684;28;20898;-70
2023/08/28 01:27:22;;;;;;;3.43;1.60;;;10.70;99.90;;;;;;5031621;28;20351;-70
2023/08/28 01:30:23;;;;;;;5.30;2.03;;;10.70;99.90;;;;;;5029020;28;20283;-70
2023/08/28 01:32:49;;;;;;;3.63;2.00;;;10.70;99.90;;;;;;4929660;29;20307;-71
2023/08/28 01:35:16;;;;;;;4.33;2.40;;;10.70;99.90;;;;;;5011341;28;20283;-70
2023/08/28 01:37:50;;;;;;;6.60;2.50;;;10.70;99.90;;;;;;5017771;28;20086;-70
2023/08/28 01:40:20;;;;;;;3.00;2.70;;;10.80;99.90;;;;;;5028536;28;20272;-70
2023/08/28 01:42:47;;;;;;;5.13;2.70;;;10.80;99.90;;;;;;5029671;28;20299;-70
2023/08/28 01:45:14;;;;;;;3.43;2.53;;;10.90;99.90;;;;;;5031575;28;20335;-70
2023/08/28 01:47:40;;;;;;;3.57;2.47;;;11.00;99.90;;;;;;5032838;28;20276;-70
2023/08/28 01:50:07;;;;;;;3.77;2.27;;;11.10;99.90;;;;;;5010783;28;20658;-70
2023/08/28 01:52:33;;;;;;;5.47;2.47;;;11.10;99.90;;;;;;5030566;28;20049;-71
2023/08/28 01:54:59;;;;;;;3.43;2.47;;;11.10;99.90;;;;;;5032678;28;20275;-70
2023/08/28 01:57:25;;;;;;;5.83;2.90;;;11.00;99.90;;;;;;5013202;28;20525;-70
2023/08/28 01:59:50;;;;;;;4.63;2.47;;;11.00;99.90;;;;;;5026605;28;20094;-70
2023/08/28 02:02:16;;;;;;;3.90;2.40;;;11.00;99.90;;;;;;5014988;28;20036;-70
2023/08/28 02:04:42;;;;;;;7.23;3.07;;;11.00;99.90;;;;;;5027454;28;20483;-70
2023/08/28 02:07:07;;;;;;;3.83;2.37;;;11.00;99.90;;;;;;5030144;28;20060;-70
2023/08/28 02:09:33;;;;;;;4.10;2.10;;;10.90;99.90;;;;;;5030922;28;20048;-70
2023/08/28 02:11:59;;;;;;;4.43;2.43;;;10.90;99.90;;;;;;5029210;28;20667;-70
2023/08/28 02:14:24;;;;;;;3.63;2.17;;;10.90;99.90;;;;;;5029418;28;20041;-70
2023/08/28 02:16:50;;;;;;;3.77;2.10;;;10.80;99.90;;;;;;5031372;28;20029;-70
2023/08/28 02:19:16;;;;;;;2.93;2.30;;;10.80;99.90;;;;;;5030528;28;20037;-70
2023/08/28 02:21:41;;;;;;;2.50;2.17;;;10.80;99.90;;;;;;5032420;28;20080;-70
2023/08/28 02:24:07;;;;;;;3.10;2.07;;;10.70;99.90;;;;;;5025773;28;20037;-70
2023/08/28 02:26:33;;;;;;;3.93;1.93;;;10.70;99.90;;;;;;5029792;28;20051;-70
2023/08/28 02:28:58;;;;;;;3.33;1.87;;;10.60;99.90;;;;;;5027993;28;20047;-70
2023/08/28 02:31:24;;;;;;;3.03;1.90;;;10.60;99.90;;;;;;5032115;28;20041;-70
2023/08/28 02:33:51;;;;;;;3.80;2.20;;;10.60;99.90;;;;;;5015856;28;20041;-70
2023/08/28 02:36:16;;;;;;;3.90;1.90;;;10.50;99.90;;;;;;5028267;28;21008;-70
2023/08/28 02:38:42;;;;;;;3.30;2.33;;;10.50;99.90;;;;;;5032135;28;20068;-70
2023/08/28 02:41:08;;;;;;;2.90;2.47;;;10.50;99.90;;;;;;5030385;28;20052;-70
2023/08/28 02:43:34;;;;;;;5.17;2.57;;;10.50;99.90;;;;;;5032044;28;20048;-70
2023/08/28 02:46:01;;;;;;;4.10;2.80;;;10.60;99.90;;;;;;5024980;28;20149;-70
2023/08/28 02:48:27;;;;;;;5.70;2.50;;;10.60;99.90;;;;;;5030340;28;20036;-70
2023/08/28 02:50:53;;;;;;;3.33;2.50;;;10.50;99.90;;;;;;5031097;28;20298;-70
2023/08/28 02:53:18;;;;;;;5.13;2.80;;;10.50;99.90;;;;;;5029587;28;20308;-70
2023/08/28 02:56:10;;;;;;;4.37;2.30;;;10.50;99.90;;;;;;5030771;28;20091;-70
2023/08/28 02:58:36;;;;;;;5.90;2.50;;;10.40;99.90;;;;;;5030176;28;20409;-70
2023/08/28 03:01:02;;;;;;;3.57;1.93;;;10.40;99.90;;;;;;5030171;28;20284;-70
2023/08/28 03:03:28;;;;;;;2.90;2.20;;;10.40;99.90;;;;;;5031456;28;20116;-70
2023/08/28 03:05:53;;;;;;;4.03;2.10;;;10.40;99.90;;;;;;5031255;28;20382;-70
2023/08/28 03:08:21;;;;;;;2.20;2.00;;;10.30;99.90;;;;;;5031628;28;20049;-70
2023/08/28 03:10:46;;;;;;;3.13;2.83;;;10.30;99.90;;;;;;5030875;28;20041;-70
2023/08/28 03:13:12;;;;;;;4.20;2.37;;;10.30;99.90;;;;;;5031744;28;20311;-70
2023/08/28 03:15:38;;;;;;;5.13;2.40;;;10.30;99.90;;;;;;5014751;28;20044;-70
2023/08/28 03:18:04;;;;;;;3.83;2.00;;;10.30;99.90;;;;;;5031553;28;20067;-70
2023/08/28 03:20:32;;;;;;;3.57;1.70;;;10.30;99.90;;;;;;5027687;28;20107;-70
2023/08/28 03:22:58;;;;;;;2.47;1.63;;;10.30;99.90;;;;;;5031605;28;20291;-70
2023/08/28 03:25:24;;;;;;;4.93;2.10;;;10.30;99.90;;;;;;5027509;28;20325;-70
2023/08/28 03:27:49;;;;;;;2.77;1.70;;;10.30;99.90;;;;;;5026584;28;20055;-70
2023/08/28 03:30:15;;;;;;;3.30;1.80;;;10.30;99.90;;;;;;5024803;28;20663;-70
2023/08/28 03:32:41;;;;;;;3.00;1.70;;;10.30;99.90;;;;;;5030485;28;20128;-70
2023/08/28 03:35:07;;;;;;;2.57;1.57;;;10.30;99.90;;;;;;5023621;28;20147;-70
2023/08/28 03:37:32;;;;;;;3.17;1.47;;;10.30;99.90;;;;;;5031214;28;20043;-70
2023/08/28 03:39:58;;;;;;;3.53;1.23;;;10.30;99.90;;;;;;5030556;28;20283;-70
2023/08/28 03:42:24;;;;;;;3.57;1.80;;;10.30;99.90;;;;;;5028765;28;20140;-70
2023/08/28 03:44:49;;;;;;;2.97;1.40;;;10.30;99.90;;;;;;5024965;28;20060;-70
2023/08/28 03:47:15;;;;;;;3.50;1.63;;;10.20;99.90;;;;;;5029182;28;20469;-70
2023/08/28 03:49:41;;;;;;;3.40;1.70;;;10.20;99.90;;;;;;5009608;28;20033;-70
2023/08/28 03:52:06;;;;;;;3.00;1.43;;;10.20;99.90;;;;;;5013953;28;20068;-70
2023/08/28 03:54:32;;;;;;;2.27;1.70;;;10.10;99.90;;;;;;5027875;28;20069;-70
2023/08/28 03:56:57;;;;;;;4.00;1.70;;;10.10;99.90;;;;;;5028319;28;20041;-70
2023/08/28 03:59:23;;;;;;;2.50;1.30;;;10.10;99.90;;;;;;5026807;28;20616;-70
2023/08/28 04:01:50;;;;;;;2.87;1.50;;;10.10;99.90;;;;;;5028932;28;20408;-70
2023/08/28 04:04:16;;;;;;;3.97;1.70;;;10.10;99.90;;;;;;5030347;28;20127;-70
2023/08/28 04:06:42;;;;;;;3.77;1.83;;;10.10;99.90;;;;;;5029757;28;20695;-70
2023/08/28 04:09:08;;;;;;;2.70;1.60;;;10.10;99.90;;;;;;5031317;28;20291;-70
2023/08/28 04:11:33;;;;;;;3.57;1.60;;;10.10;99.90;;;;;;5029232;28;20041;-70
2023/08/28 04:13:59;;;;;;;4.10;1.70;;;10.20;99.90;;;;;;5028295;28;20032;-70
2023/08/28 04:16:25;;;;;;;2.93;1.67;;;10.20;99.90;;;;;;5030437;28;20048;-70
2023/08/28 04:18:50;;;;;;;3.87;1.50;;;10.30;99.90;;;;;;5026756;28;21252;-71
2023/08/28 04:21:16;;;;;;;3.07;2.00;;;10.30;99.90;;;;;;5030533;28;20044;-70
2023/08/28 04:23:42;;;;;;;3.73;1.80;;;10.40;99.90;;;;;;5029082;28;20052;-70
2023/08/28 04:26:07;;;;;;;5.30;2.27;;;10.50;99.90;;;;;;5014272;28;20048;-70
2023/08/28 04:28:33;;;;;;;3.10;1.70;;;10.60;99.90;;;;;;5013085;28;20087;-71
2023/08/28 04:30:59;;;;;;;2.80;2.00;;;10.70;99.90;;;;;;5030468;28;20531;-71
2023/08/28 04:33:25;;;;;;;5.23;2.70;;;10.80;99.90;;;;;;5028598;28;20479;-71
2023/08/28 04:35:50;;;;;;;6.07;2.40;;;10.90;99.90;;;;;;5030471;28;20237;-71
2023/08/28 04:38:16;;;;;;;2.90;2.20;;;11.00;99.90;;;;;;5027827;28;20370;-71
2023/08/28 04:40:42;;;;;;;4.20;2.20;;;11.10;99.90;;;;;;5029189;28;20480;-71
2023/08/28 04:43:08;;;;;;;4.90;1.87;;;11.10;99.90;;;;;;5024828;28;20276;-71
2023/08/28 04:45:34;;;;;;;2.90;1.50;;;11.10;99.90;;;;;;5028315;28;20140;-71
2023/08/28 04:47:59;;;;;;;4.53;1.80;;;11.20;99.90;;;;;;5029756;28;20534;-71
2023/08/28 04:50:25;;;;;;;2.57;1.77;;;11.30;99.90;;;;;;5028572;28;20042;-71
2023/08/28 04:52:51;;;;;;;3.47;2.23;;;11.40;99.90;;;;;;5026531;28;20142;-71
2023/08/28 04:55:17;;;;;;;2.63;1.70;;;11.40;99.90;;;;;;5009564;28;20311;-71
2023/08/28 04:57:42;;;;;;;3.70;2.37;;;11.40;99.90;;;;;;5021298;28;20037;-71
2023/08/28 05:00:08;;;;;;;2.57;1.90;;;11.40;99.90;;;;;;5026634;28;20379;-71
2023/08/28 05:02:34;;;;;;;4.87;2.30;;;11.50;99.90;;;;;;5028652;28;20041;-71
2023/08/28 05:05:00;;;;;;;4.37;2.37;;;11.50;99.90;;;;;;5024424;28;20851;-71
2023/08/28 05:07:26;;;;;;;4.43;2.33;;;11.50;99.90;;;;;;5008909;28;20045;-71
2023/08/28 05:09:51;;;;;;;4.97;2.80;;;11.50;99.90;;;;;;5025474;28;20041;-71
2023/08/28 05:12:17;;;;;;;4.03;2.53;;;11.50;99.90;;;;;;5029917;28;20104;-71
2023/08/28 05:14:43;;;;;;;3.77;2.50;;;11.50;99.90;;;;;;5025357;28;20363;-71
2023/08/28 05:17:08;;;;;;;3.20;2.30;;;11.50;99.90;;;;;;5029495;28;20119;-71
2023/08/28 05:19:35;;;;;;;3.03;2.60;;;11.50;99.90;;;;;;5027874;28;20079;-71
2023/08/28 05:22:00;;;;;;;4.37;2.50;;;11.50;99.90;;;;;;5041294;28;20045;-71
2023/08/28 05:24:26;;;;;;;4.53;2.93;;;11.50;99.90;;;;;;5030702;28;20314;-71
2023/08/28 05:26:52;;;;;;;5.30;2.70;;;11.50;99.90;;;;;;5004104;28;20037;-71
2023/08/28 05:29:17;;;;;;;3.07;2.50;;;11.60;99.90;;;;;;5023303;28;20807;-71
2023/08/28 05:31:43;;;;;;;3.97;2.53;;;11.60;99.90;;;;;;5024096;28;20562;-71
2023/08/28 05:34:09;;;;;;;2.90;2.13;;;11.70;99.90;;;;;;5030127;28;20033;-71
2023/08/28 05:36:34;;;;;;;3.30;3.00;;;11.70;99.90;;;;;;5021595;28;20033;-71
2023/08/28 05:39:00;;;;;;;4.37;2.47;;;11.80;99.90;;;;;;5022894;28;20029;-71
2023/08/28 05:41:26;;;;;;;4.00;2.83;;;11.90;99.90;;;;;;5025967;28;20526;-71
2023/08/28 05:43:51;;;;;;;3.37;2.40;;;11.90;99.90;;;;;;5028649;28;20036;-71
2023/08/28 05:46:17;;;;;;;4.63;2.63;;;12.00;99.90;;;;;;5012900;28;20440;-71
2023/08/28 05:48:43;;;;;;;5.50;3.00;;;12.10;99.90;;;;;;5008225;28;20057;-71
2023/08/28 05:51:08;;;;;;;7.20;3.07;;;12.20;99.90;;;;;;4992198;28;20037;-71
2023/08/28 05:53:34;;;;;;;5.00;3.43;;;12.20;99.90;;;;;;5006686;28;20432;-71
2023/08/28 05:56:00;;;;;;;3.43;3.03;;;12.30;99.90;;;;;;5022704;28;20189;-71
2023/08/28 05:58:25;;;;;;;5.23;3.40;;;12.40;99.90;;;;;;5008366;28;20041;-71
2023/08/28 06:00:51;;;;;;;5.67;3.30;;;12.40;99.90;;;;;;5021487;28;20041;-71
2023/08/28 06:03:17;;;;;;;4.73;3.07;;;12.50;99.90;;;;;;5009191;28;20041;-71
2023/08/28 06:05:43;;;;;;;3.73;3.23;;;12.60;99.90;;;;;;4991515;28;20041;-71
2023/08/28 06:08:08;;;;;;;4.00;3.20;;;12.60;99.90;;;;;;5022786;28;20073;-71
2023/08/28 06:10:38;;;;;;;4.60;3.20;;;12.70;99.90;;;;;;5010380;28;20655;-71
2023/08/28 06:13:04;;;;;;;4.37;3.10;;;12.90;99.90;;;;;;5009258;28;20051;-71
2023/08/28 06:15:30;;;;;;;4.00;2.97;;;13.00;99.90;;;;;;5013697;28;20808;-71
2023/08/28 06:17:56;;;;;;;3.57;2.43;;;13.10;99.90;;;;;;5010390;28;20289;-71
2023/08/28 06:20:22;;;;;;;4.27;2.90;;;13.30;99.90;;;;;;5013697;28;20617;-71
2023/08/28 06:22:48;;;;;;;7.13;2.90;;;13.40;99.90;;;;;;5007928;28;20090;-71
2023/08/28 06:25:14;;;;;;;4.30;2.87;;;13.50;99.90;;;;;;5006504;28;20291;-71
2023/08/28 06:27:39;;;;;;;4.47;3.20;;;13.70;99.90;;;;;;5016713;28;20046;-72
2023/08/28 06:30:06;;;;;;;4.60;2.60;;;13.80;99.90;;;;;;4993776;28;20529;-72
2023/08/28 06:32:33;;;;;;;6.00;2.40;;;13.90;99.90;;;;;;5003378;28;20069;-70
2023/08/28 06:34:59;;;;;;;4.80;2.20;;;14.00;99.90;;;;;;5009169;28;21145;-71
2023/08/28 06:37:25;;;;;;;5.87;2.07;;;14.10;99.90;;;;;;5010213;28;20288;-71
2023/08/28 06:39:54;;;;;;;3.67;2.20;;;14.20;99.90;;;;;;5027255;28;20378;-71
2023/08/28 06:42:20;;;;;;;8.23;1.97;;;14.30;99.90;;;;;;5012347;28;20045;-71
2023/08/28 06:44:46;;;;;;;2.90;1.70;;;14.40;99.90;;;;;;5016130;28;20284;-71
2023/08/28 06:47:13;;;;;;;3.03;1.63;;;14.50;99.90;;;;;;5024646;28;20049;-71
2023/08/28 06:49:38;;;;;;;4.03;1.80;;;14.60;99.90;;;;;;5012873;28;20091;-71
2023/08/28 06:52:04;;;;;;;3.63;1.80;;;14.80;99.90;;;;;;5026514;28;20323;-71
2023/08/28 06:54:32;;;;;;;3.70;1.73;;;14.90;99.90;;;;;;5032196;28;20563;-71
2023/08/28 06:56:58;;;;;;;3.70;1.60;;;15.00;99.90;;;;;;5027068;28;20103;-71
2023/08/28 06:59:24;;;;;;;4.83;1.50;;;15.10;99.90;;;;;;5029304;28;20291;-71
2023/08/28 07:01:50;;;;;;;3.37;1.63;;;15.20;99.90;;;;;;5029522;28;20876;-71
2023/08/28 07:04:15;;;;;;;5.00;1.00;;;15.30;99.90;;;;;;5028913;28;20064;-71
2023/08/28 07:06:41;;;;;;;3.20;0.83;;;15.40;99.90;;;;;;5011880;28;20040;-71
2023/08/28 07:09:07;;;;;;;3.50;0.90;;;15.50;99.90;;;;;;5025819;28;20037;-71
2023/08/28 07:11:33;;;;;;;4.27;0.70;;;15.60;99.90;;;;;;5014007;28;20511;-71
2023/08/28 07:13:58;;;;;;;2.43;0.80;;;15.80;99.90;;;;;;5032247;28;20120;-71
2023/08/28 07:16:25;;;;;;;3.83;0.80;;;15.80;99.90;;;;;;5011786;28;20482;-71
2023/08/28 07:18:50;;;;;;;2.23;0.60;;;16.00;99.90;;;;;;5031157;28;20044;-71
2023/08/28 07:21:16;;;;;;;3.37;0.60;;;16.10;99.80;;;;;;5026834;28;20310;-71
2023/08/28 07:23:42;;;;;;;3.00;0.70;;;16.10;99.50;;;;;;5023306;28;20323;-71
2023/08/28 07:26:08;;;;;;;2.33;0.80;;;16.20;99.40;;;;;;5022534;28;20041;-71
2023/08/28 07:28:33;;;;;;;2.17;0.50;;;16.30;99.00;;;;;;5025961;28;20291;-71
2023/08/28 07:31:01;;;;;;;1.67;0.50;;;16.30;96.70;;;;;;5042095;28;20045;-71
2023/08/28 07:33:27;;;;;;;1.70;0.47;;;16.50;95.60;;;;;;5014556;28;20037;-71
2023/08/28 07:35:53;;;;;;;2.43;0.40;;;16.50;94.70;;;;;;5029503;28;20353;-70
2023/08/28 07:38:19;;;;;;;2.17;0.57;;;16.60;95.10;;;;;;5011897;28;20045;-71
2023/08/28 07:40:49;;;;;;;1.60;0.40;;;16.60;91.00;;;;;;5026366;28;20285;-71
2023/08/28 07:43:14;;;;;;;2.37;0.40;;;16.60;92.70;;;;;;5011144;28;20456;-71
2023/08/28 07:45:40;;;;;;;1.63;0.50;;;16.70;92.40;;;;;;5029049;28;20382;-71
2023/08/28 07:48:07;;;;;;;2.30;0.50;;;16.70;91.80;;;;;;5024908;28;20088;-71
2023/08/28 07:50:33;;;;;;;2.80;0.40;;;16.80;89.10;;;;;;5026647;28;20048;-71
2023/08/28 07:52:59;;;;;;;1.60;0.40;;;16.90;88.80;;;;;;5027528;28;20389;-71
2023/08/28 07:55:25;;;;;;;2.50;0.40;;;17.00;89.70;;;;;;5017799;28;20649;-71
2023/08/28 07:57:52;;;;;;;2.43;0.60;;;17.10;91.20;;;;;;5023969;28;20315;-71
2023/08/28 08:00:20;;;;;;;1.40;0.37;;;17.20;91.40;;;;;;5015859;28;20641;-70
2023/08/28 08:02:47;;;;;;;3.03;0.40;;;17.30;91.10;;;;;;5017018;28;20692;-70
2023/08/28 08:05:13;;;;;;;1.67;0.40;;;17.30;88.10;;;;;;5021034;28;20388;-71
2023/08/28 08:07:41;;;;;;;3.50;0.40;;;17.40;88.70;;;;;;5022103;28;20287;-71
2023/08/28 08:10:11;;;;;;;2.57;0.50;;;17.50;87.60;;;;;;5023106;28;20037;-71
2023/08/28 08:12:41;;;;;;;3.17;0.40;;;17.60;87.50;;;;;;5027963;28;20383;-70
2023/08/28 08:15:07;;;;;;;1.80;0.20;;;17.80;86.20;;;;;;5007124;28;20314;-71
2023/08/28 08:17:35;;;;;;;1.13;0.30;;;17.90;84.00;;;;;;5029758;28;20288;-70
2023/08/28 08:20:01;;;;;;;0.80;0.20;;;18.00;83.00;;;;;;5025847;28;20362;-71
2023/08/28 08:22:27;;;;;;;2.87;0.47;;;18.10;80.80;;;;;;5025794;28;20387;-71
2023/08/28 08:24:52;;;;;;;1.33;0.20;;;18.20;83.30;;;;;;5027055;28;20068;-71
2023/08/28 08:27:18;;;;;;;2.83;0.30;;;18.40;83.90;;;;;;5026340;28;20048;-71
2023/08/28 08:29:45;;;;;;;2.60;0.60;;;18.50;81.10;;;;;;5027294;28;20386;-71
2023/08/28 08:32:10;;;;;;;2.30;0.20;;;18.70;81.10;;;;;;5027050;28;20128;-70
2023/08/28 08:34:36;;;;;;;3.37;0.20;;;18.80;81.80;;;;;;5028047;28;20383;-71
2023/08/28 08:37:02;;;;;;;1.37;0.30;;;18.90;81.00;;;;;;5026766;28;20489;-71
2023/08/28 08:39:28;;;;;;;2.27;0.43;;;18.90;79.90;;;;;;5019953;28;20068;-71
2023/08/28 08:41:54;;;;;;;3.13;0.20;;;19.00;77.50;;;;;;5023941;28;20049;-71
2023/08/28 08:44:19;;;;;;;1.43;0.30;;;19.10;78.90;;;;;;5023456;28;20045;-71
2023/08/28 08:46:46;;;;;;;1.17;0.50;;;19.30;78.40;;;;;;5024307;28;20069;-71
2023/08/28 08:49:19;;;;;;;3.70;0.50;;;19.50;76.90;;;;;;5021519;28;20089;-71
2023/08/28 08:51:47;;;;;;;8.93;0.93;;;19.80;72.50;;;;;;5023152;28;20049;-71
2023/08/28 08:54:20;;;;;;;3.07;0.37;;;20.10;75.40;;;;;;5025856;28;20124;-71
2023/08/28 08:56:50;;;;;;;4.13;0.57;;;20.20;76.10;;;;;;5027933;28;20041;-71
2023/08/28 08:59:16;;;;;;;1.23;0.43;;;20.10;75.80;;;;;;5024474;28;20046;-71
2023/08/28 09:01:42;;;;;;;1.37;0.23;;;19.90;73.60;;;;;;5009426;28;20041;-71
2023/08/28 09:04:09;;;;;;;1.20;0.33;;;19.70;74.20;;;;;;5022992;28;20045;-70
2023/08/28 09:06:37;;;;;;;2.07;0.30;;;19.50;74.30;;;;;;5026671;28;20076;-71
2023/08/28 09:09:06;;;;;;;2.33;0.30;;;19.40;74.30;;;;;;5024385;28;20446;-71
2023/08/28 09:11:40;;;;;;;1.50;0.20;;;19.30;74.40;;;;;;5026590;28;20488;-70
2023/08/28 09:14:06;;;;;;;1.73;0.20;;;19.20;75.20;;;;;;5026891;28;20041;-70
2023/08/28 09:16:35;;;;;;;1.37;0.50;;;19.20;75.20;;;;;;5008662;28;20025;-71
2023/08/28 09:19:02;;;;;;;1.07;0.20;;;19.20;76.30;;;;;;5025354;28;20033;-70
2023/08/28 09:21:38;;;;;;;0.90;0.20;;;19.30;76.30;;;;;;5020864;28;20641;-71
2023/08/28 09:24:09;;;;;;;3.73;0.50;;;19.60;77.20;;;;;;5012002;28;20083;-71
2023/08/28 09:26:37;;;;;;;0.60;0.20;;;19.90;76.00;;;;;;5025963;28;20045;-71
2023/08/28 09:29:08;;;;;;;3.30;0.20;;;20.30;76.00;;;;;;5025820;28;20032;-71
2023/08/28 09:31:39;;;;;;;1.10;0.30;;;20.50;72.10;;;;;;5024211;28;20076;-70
2023/08/28 09:34:05;;;;;;;1.30;0.40;;;20.60;68.70;;;;;;5025075;28;20431;-71
2023/08/28 09:36:36;;;;;;;0.47;0.20;;;20.60;69.90;;;;;;5023284;28;20042;-71
2023/08/28 09:39:06;;;;;;;0.63;0.50;;;20.70;70.40;;;;;;5007589;28;20087;-70
2023/08/28 09:41:48;;;;;;;1.37;0.20;;;20.70;70.70;;;;;;5021426;28;20041;-70
2023/08/28 09:44:19;;;;;;;1.17;0.40;;;20.60;70.80;;;;;;5030688;28;20056;-70
2023/08/28 09:46:46;;;;;;;0.50;0.20;;;20.50;70.70;;;;;;5024125;28;20049;-70
2023/08/28 09:49:13;;;;;;;2.23;0.30;;;20.30;70.80;;;;;;5029425;28;20180;-71
2023/08/28 09:51:47;;;;;;;2.67;0.40;;;20.10;69.90;;;;;;5024600;28;20044;-70
2023/08/28 09:54:16;;;;;;;1.35;0.20;;;20.00;72.10;;;;;;5035976;28;20044;-70
2023/08/28 09:56:43;;;;;;;1.27;0.30;;;20.00;71.70;;;;;;5036418;28;20041;-70
2023/08/28 09:59:10;;;;;;;2.83;0.60;;;20.10;72.90;;;;;;5036754;28;20041;-70
2023/08/28 10:01:37;;;;;;;1.87;0.20;;;20.20;70.70;;;;;;5031944;28;20159;-70
2023/08/28 10:04:08;;;;;;;1.30;0.40;;;20.40;71.60;;;;;;5037231;28;20048;-70
2023/08/28 10:06:38;;;;;;;1.07;0.20;;;20.50;69.10;;;;;;5039462;28;20159;-70
2023/08/28 10:09:08;;;;;;;1.13;0.30;;;20.50;68.20;;;;;;5037690;28;20059;-70
2023/08/28 10:11:39;;;;;;;1.53;0.30;;;20.30;68.60;;;;;;5031612;28;20040;-70
2023/08/28 10:14:06;;;;;;;1.40;0.40;;;20.10;68.10;;;;;;5032716;28;20044;-70
2023/08/28 10:16:36;;;;;;;0.97;0.10;;;19.90;67.80;;;;;;5031679;28;20056;-70
2023/08/28 10:19:19;;;;;;;0.73;0.20;;;19.80;68.00;;;;;;5035165;28;20073;-70
2023/08/28 10:21:47;;;;;;;1.37;0.37;;;19.70;68.00;;;;;;5034795;28;20051;-70
2023/08/28 10:24:15;;;;;;;1.80;0.30;;;19.60;69.80;;;;;;5025603;28;20142;-70
2023/08/28 10:26:42;;;;;;;3.13;0.40;;;19.70;70.10;;;;;;5030961;28;20425;-70
2023/08/28 10:29:09;;;;;;;0.83;0.30;;;19.70;68.70;;;;;;5037262;28;20064;-70
2023/08/28 10:31:37;;;;;;;1.07;0.37;;;20.00;70.20;;;;;;5034460;28;20049;-70
2023/08/28 10:34:04;;;;;;;2.47;0.33;;;20.30;69.90;;;;;;5031450;28;20040;-71
2023/08/28 10:36:31;;;;;;;1.40;0.27;;;20.70;69.50;;;;;;5031448;28;20043;-70
2023/08/28 10:39:00;;;;;;;2.00;0.50;;;21.10;66.00;;;;;;5033504;28;20041;-70
2023/08/28 10:41:27;;;;;;;1.37;0.30;;;21.30;65.00;;;;;;5027980;28;20440;-70
2023/08/28 10:43:53;;;;;;;2.40;0.40;;;21.20;65.10;;;;;;5023005;28;20037;-70
2023/08/28 10:46:21;;;;;;;2.33;0.70;;;20.90;66.50;;;;;;5029694;28;20061;-70
2023/08/28 10:48:47;;;;;;;1.57;0.30;;;20.70;67.00;;;;;;5031659;28;20509;-70
2023/08/28 10:51:14;;;;;;;1.70;0.33;;;20.40;68.60;;;;;;5035037;28;20044;-70
2023/08/28 10:53:40;;;;;;;2.37;0.30;;;20.20;68.50;;;;;;5044603;28;20045;-71
2023/08/28 10:56:06;;;;;;;4.10;0.60;;;20.10;69.00;;;;;;5032364;28;20126;-71
2023/08/28 10:58:42;;;;;;;1.60;0.20;;;20.10;69.50;;;;;;5015872;28;20088;-71
2023/08/28 11:01:14;;;;;;;1.10;0.30;;;20.30;71.10;;;;;;5012963;28;20032;-71
2023/08/28 11:03:57;;;;;;;1.57;0.40;;;20.80;71.40;;;;;;5031494;28;20044;-71
2023/08/28 11:06:39;;;;;;;0.80;0.23;;;21.30;65.10;;;;;;5011425;28;20045;-71
2023/08/28 11:09:27;;;;;;;0.57;0.30;;;21.60;64.90;;;;;;5031279;28;20037;-71
2023/08/28 11:12:15;;;;;;;0.93;0.30;;;21.90;63.80;;;;;;5030759;28;20417;-71
2023/08/28 11:14:56;;;;;;;1.77;0.30;;;22.20;61.30;;;;;;5029539;28;20037;-71
2023/08/28 11:17:22;;;;;;;1.37;0.30;;;22.20;64.30;;;;;;5027228;28;20045;-71
2023/08/28 11:19:54;;;;;;;0.80;0.20;;;21.90;60.70;;;;;;5036313;28;20049;-71
2023/08/28 11:22:33;;;;;;;2.20;0.20;;;21.70;62.00;;;;;;5035478;28;20136;-71
2023/08/28 11:25:00;;;;;;;2.73;0.40;;;21.50;62.40;;;;;;5027807;28;20041;-71
2023/08/28 11:27:49;;;;;;;1.50;0.30;;;21.30;63.90;;;;;;5031840;28;20041;-71
2023/08/28 11:30:20;;;;;;;0.83;0.30;;;21.00;65.70;;;;;;5033590;28;20036;-70
2023/08/28 11:32:52;;;;;;;2.03;0.33;;;20.70;68.00;;;;;;5034936;28;20033;-71
2023/08/28 11:35:18;;;;;;;2.50;0.30;;;20.50;68.90;;;;;;5033114;28;20623;-71
2023/08/28 11:37:50;;;;;;;2.57;0.57;;;20.30;70.20;;;;;;5030685;28;20033;-71
2023/08/28 11:40:19;;;;;;;2.77;0.30;;;20.10;70.00;;;;;;5031949;28;20041;-70
2023/08/28 11:42:49;;;;;;;2.20;0.30;;;20.00;71.00;;;;;;5030253;28;20527;-71
2023/08/28 11:45:22;;;;;;;1.33;0.40;;;19.90;71.30;;;;;;5026950;28;20454;-71
2023/08/28 11:47:49;;;;;;;2.10;0.30;;;19.90;71.80;;;;;;5010148;28;20053;-71
2023/08/28 11:50:17;;;;;;;1.07;0.20;;;19.90;72.10;;;;;;5009392;28;20266;-71
2023/08/28 11:52:47;;;;;;;1.57;0.20;;;19.80;70.60;;;;;;5011340;28;20366;-71
2023/08/28 11:55:13;;;;;;;1.27;0.20;;;19.80;70.20;;;;;;5009917;28;20039;-71
2023/08/28 11:57:39;;;;;;;1.93;0.43;;;19.80;68.60;;;;;;5003967;28;20413;-71
2023/08/28 12:00:09;;;;;;;1.07;0.17;;;19.70;66.50;;;;;;5005015;28;20038;-71
2023/08/28 12:02:35;;;;;;;0.40;0.10;;;19.70;66.90;;;;;;5010366;28;20043;-71
2023/08/28 12:05:01;;;;;;;1.20;0.20;;;19.70;66.70;;;;;;5014843;28;20127;-71
2023/08/28 12:07:27;;;;;;;0.70;0.17;;;19.90;68.70;;;;;;5009809;28;20072;-71
2023/08/28 12:09:54;;;;;;;0.97;0.20;;;20.00;67.20;;;;;;5010489;28;20030;-71
2023/08/28 12:12:22;;;;;;;0.87;0.20;;;20.10;67.90;;;;;;4989835;28;20484;-71
2023/08/28 12:14:49;;;;;;;1.90;0.20;;;20.30;66.90;;;;;;4996121;28;20041;-71
2023/08/28 12:17:21;;;;;;;2.17;0.20;;;20.40;66.90;;;;;;5011257;28;20065;-71
2023/08/28 12:19:49;;;;;;;1.03;0.10;;;20.60;67.80;;;;;;5011092;28;20175;-71
2023/08/28 12:22:15;;;;;;;1.33;0.30;;;20.70;66.90;;;;;;5011085;28;20044;-71
2023/08/28 12:24:46;;;;;;;0.40;0.10;;;20.80;66.00;;;;;;5010760;28;20045;-71
2023/08/28 12:27:14;;;;;;;1.30;0.10;;;21.10;66.50;;;;;;5006971;28;20073;-71
2023/08/28 12:29:43;;;;;;;1.27;0.30;;;21.40;66.00;;;;;;5008638;28;20045;-71
2023/08/28 12:32:17;;;;;;;2.10;0.40;;;21.70;63.90;;;;;;4992378;28;20042;-72
2023/08/28 12:34:43;;;;;;;2.33;0.40;;;21.80;63.20;;;;;;5010746;28;20052;-72
2023/08/28 12:37:11;;;;;;;1.03;0.30;;;22.00;64.30;;;;;;5002734;28;20044;-71
2023/08/28 12:39:50;;;;;;;2.87;0.23;;;21.80;62.70;;;;;;5007767;28;20483;-71
2023/08/28 12:42:18;;;;;;;2.17;0.20;;;21.60;63.60;;;;;;5006806;28;20124;-71
2023/08/28 12:44:44;;;;;;;2.50;0.30;;;21.40;63.10;;;;;;5005353;28;20045;-71
2023/08/28 12:47:11;;;;;;;0.93;0.13;;;21.30;65.00;;;;;;5020120;28;20091;-72
2023/08/28 12:49:41;;;;;;;1.73;0.30;;;21.30;65.90;;;;;;4998572;28;20048;-71
2023/08/28 12:52:08;;;;;;;1.73;0.20;;;21.40;66.60;;;;;;5013006;28;20044;-71